Station: Jervois  

  Atmospheric Gas Attenuation - ITU Rec 676-11   ----------------- dB/100km -----------------
Date Time Temp RH % AH g/m3 Dew Point Wind Direction Speed kph Gust kph Barometer mB Rainfall Since 9am 24GHz 47GHz 76GHz 122GHz 134GHz 241GHz
03/09 21:50 20.1 47 8.17 8.4 2 7 1018.4 0 18.4 23.7 35.4 92.8 86.0 295.8
03/09 21:40 21 43 7.88 8 0 0 1018.3 0 17.7 23.0 34.0 89.0 81.6 280.6
03/09 21:30 21.5 42 7.92 8.1 2 6 1018.3 0 17.8 23.0 33.9 88.8 81.6 280.5
03/09 21:20 21.8 40 7.67 7.6 6 7 1018.3 0 17.3 22.5 32.9 86.2 78.4 269.3
03/09 21:09 22.3 42 8.29 8.8 0 0 1018.2 0 18.5 23.3 34.9 91.4 85.1 292.8
03/09 21:00 22.5 37 7.39 7.1 0 0 1018.2 0 16.6 22.0 31.7 82.8 74.5 255.8
03/09 20:50 22.8 37 7.52 7.4 0 0 1018.1 0 16.9 22.1 32.0 83.7 75.7 260.0
03/09 20:39 23.1 37 7.65 7.6 0 0 1018 0 17.2 22.2 32.3 84.6 76.9 264.2
03/09 20:30 23.3 36 7.53 7.4 2 6 1017.8 0 16.9 22.0 31.8 83.3 75.3 258.8
03/09 20:20 23.7 38 8.13 8.5 4 6 1017.8 0 18.1 22.7 33.7 88.4 81.7 281.3
03/09 20:10 24.2 34 7.48 7.4 4 6 1017.8 0 16.8 21.7 31.3 81.9 74.0 254.0
03/09 19:59 24.3 33 7.3 7 6 6 1017.6 0 16.4 21.4 30.7 80.2 71.9 246.7
03/09 19:50 24.4 31 6.9 6.2 7 7 1017.5 0 15.6 20.8 29.3 76.6 67.4 231.1
03/09 19:39 24.6 30 6.75 5.9 7 7 1017.4 0 15.2 20.6 28.8 75.1 65.6 224.9
03/09 19:30 24.8 31 7.06 6.5 9 9 1017.2 0 15.9 21.0 29.7 77.6 68.8 236.0
03/09 19:19 24.9 29 6.64 5.7 9 9 1017.2 0 15.0 20.4 28.3 73.8 64.2 219.9
03/09 19:10 25.1 31 7.18 6.8 7 7 1017.1 0 16.1 21.1 30.0 78.3 69.8 239.7
03/09 19:00 25.8 28 6.74 5.9 6 7 1016.9 0 15.2 20.3 28.3 73.9 64.6 221.2
03/09 18:50 26.5 26 6.51 5.5 7 7 1016.9 0 14.7 19.9 27.4 71.3 61.6 210.9
03/09 18:40 27.2 25 6.51 5.5 7 7 1016.9 0 14.6 19.7 27.1 70.7 61.1 209.2
03/09 18:30 27.9 24 6.49 5.5 7 7 1016.7 0 14.6 19.5 26.8 70.0 60.4 206.7
03/09 18:20 28.3 22 6.08 4.6 7 9 1016.7 0 13.7 19.0 25.5 66.3 56.0 191.2
03/09 18:09 29.1 20 5.78 3.9 9 11 1016.6 0 13.1 18.4 24.3 63.3 52.5 179.1
03/09 18:00 30 18 5.46 3.1 11 17 1016.5 0 12.4 17.9 23.1 60.1 48.9 166.4
03/09 17:50 30.3 18 5.55 3.4 13 17 1016.6 0 12.6 17.9 23.3 60.6 49.5 168.8
03/09 17:40 30.8 17 5.38 3 13 19 1016.5 0 12.2 17.6 22.7 59.0 47.6 162.2
03/09 17:30 31 17 5.44 3.1 13 20 1016.3 0 12.3 17.7 22.8 59.3 48.1 163.8
03/09 17:19 31 17 5.44 3.1 15 17 1016.4 0 12.3 17.7 22.8 59.3 48.1 163.8
03/09 17:10 30.7 18 5.67 3.7 7 11 1016.3 0 12.8 18.0 23.6 61.2 50.4 172.0
03/09 17:00 31.4 16 5.23 2.6 9 11 1016.2 0 11.9 17.4 22.1 57.4 45.9 156.1
03/09 16:50 31.8 16 5.35 2.9 7 13 1013.1 0 12.1 17.3 22.3 57.8 46.7 158.9
03/09 16:40 32.4 15 5.17 2.5 11 15 1016.3 0 11.7 17.1 21.7 56.3 44.8 152.4
03/09 16:30 32.5 15 5.2 2.5 11 20 1016.2 0 11.8 17.1 21.8 56.5 45.0 153.2
03/09 16:20 32.5 15 5.2 2.5 17 24 1016.3 0 11.8 17.1 21.8 56.5 45.0 153.2
03/09 16:10 32.9 15 5.31 2.9 19 26 1016.3 0 12.0 17.2 22.0 57.0 45.8 156.0
03/09 16:00 32.9 14 4.96 1.9 13 22 1016.1 0 11.3 16.8 21.0 54.4 42.6 144.8
03/09 15:50 33.3 14 5.07 2.2 13 20 1016.2 0 11.5 16.8 21.2 55.0 43.4 147.6
03/09 15:40 33.1 14 5.01 2.1 11 20 1016.3 0 11.4 16.8 21.1 54.7 43.0 146.1
03/09 15:30 33.2 14 5.04 2.1 13 24 1016.3 0 11.4 16.8 21.1 54.8 43.2 146.9
03/09 15:19 33 15 5.34 2.9 17 20 1016.4 0 12.1 17.2 22.0 57.2 46.1 156.8
03/09 15:10 32.8 14 4.93 1.8 13 20 1016.4 0 11.2 16.8 20.9 54.3 42.4 144.0
03/09 15:00 32.7 15 5.26 2.7 11 20 1016.4 0 11.9 17.2 21.9 56.8 45.5 154.8
03/09 14:49 32.7 14 4.91 1.7 13 17 1016.7 0 11.2 16.8 20.9 54.2 42.3 143.6
03/09 14:40 32.8 15 5.29 2.8 7 15 1016.8 0 12.0 17.2 21.9 57.0 45.7 155.6
03/09 14:30 31.6 15 4.96 1.8 11 20 1016.9 0 11.3 17.0 21.3 55.3 43.3 147.1
03/09 14:20 32.4 14 4.83 1.5 13 20 1017 0 11.0 16.7 20.8 53.8 41.8 141.6
03/09 14:10 32.9 14 4.96 1.9 15 20 1017.2 0 11.3 16.8 21.0 54.5 42.7 144.9
03/09 14:00 32.9 14 4.96 1.9 15 32 1017.2 0 11.3 16.8 21.0 54.5 42.7 144.9
03/09 13:50 32.9 14 4.96 1.9 11 20 1017.4 0 11.3 16.8 21.0 54.5 42.7 145.0
03/09 13:40 32.8 14 4.93 1.8 9 11 1017.5 0 11.2 16.8 21.0 54.4 42.5 144.2
03/09 13:30 32.4 14 4.83 1.5 11 20 1017.5 0 11.0 16.8 20.8 53.9 41.8 141.7
03/09 13:20 32.6 14 4.88 1.7 15 24 1017.8 0 11.1 16.8 20.9 54.1 42.1 143.0
03/09 13:10 32.8 14 4.93 1.8 11 20 1018 0 11.2 16.8 21.0 54.4 42.5 144.2
03/09 13:00 32.4 14 4.83 1.5 15 24 1018.2 0 11.0 16.8 20.8 53.9 41.8 141.7
03/09 12:50 32.4 15 5.17 2.5 13 20 1018.3 0 11.7 17.2 21.8 56.4 44.9 152.7
03/09 12:40 33.3 16 5.79 4.1 13 20 1018.5 0 13.0 17.7 23.3 60.5 50.1 171.1
03/09 12:30 32.2 16 5.46 3.2 13 24 1018.7 0 12.3 17.5 22.6 58.8 47.7 162.5
03/09 12:20 32.3 15 5.15 2.4 13 22 1019 0 11.7 17.2 21.7 56.4 44.8 152.3
03/09 12:10 32.3 18 6.18 5 15 22 1019.1 0 13.8 18.4 24.7 64.2 54.4 186.2
03/09 12:00 31.8 17 5.68 3.8 15 22 1019.2 0 12.8 17.9 23.4 60.7 50.0 170.6
03/09 11:50 32.2 18 6.14 4.9 17 24 1019.4 0 13.7 18.4 24.6 64.0 54.1 185.1
03/09 11:40 32.4 19 6.55 5.8 13 22 1019.5 0 14.5 18.8 25.7 67.0 57.9 198.5
03/09 11:30 31.4 21 6.87 6.5 17 24 1019.6 0 15.2 19.4 27.0 70.4 61.8 212.0
03/09 11:20 31.7 22 7.31 7.4 17 24 1019.8 0 16.1 19.9 28.2 73.7 65.9 226.6
03/09 11:10 31.5 22 7.23 7.2 19 30 1020 0 16.0 19.8 28.0 73.2 65.3 224.4
03/09 11:00 31 22 7.04 6.8 19 26 1019.9 0 15.6 19.7 27.6 72.1 63.8 219.0
03/09 10:50 31 23 7.36 7.5 20 28 1020.1 0 16.2 20.1 28.6 74.7 67.0 230.3
03/09 10:40 31.3 22 7.16 7.1 24 32 1020.1 0 15.8 19.8 27.9 72.8 64.8 222.4
03/09 10:30 30.8 20 6.33 5.3 11 17 1020 0 14.1 18.9 25.6 66.6 56.9 194.8
03/09 10:20 30.6 21 6.58 5.8 11 15 1020.2 0 14.7 19.2 26.4 68.7 59.5 203.9
03/09 10:10 30.3 22 6.78 6.2 7 13 1020.2 0 15.1 19.5 27.1 70.6 61.7 211.7
03/09 10:00 29.7 22 6.57 5.7 9 15 1020.2 0 14.7 19.4 26.6 69.4 60.1 205.8
03/09 09:50 29.2 23 6.68 6 9 15 1020.3 0 14.9 19.6 27.1 70.7 61.5 210.9
03/09 09:40 28.2 27 7.42 7.4 9 13 1020.3 0 16.5 20.8 29.8 77.8 69.9 240.4
03/09 09:30 27.8 26 6.99 6.6 9 13 1020.2 0 15.6 20.3 28.5 74.5 65.8 225.7
03/09 09:20 27.4 27 7.1 6.8 9 11 1020.4 0 15.8 20.5 29.0 75.8 67.3 230.8
03/09 09:10 26.6 28 7.05 6.6 9 11 1020.4 0 15.8 20.7 29.1 76.1 67.4 231.2
03/09 09:00 26 29 7.06 6.6 7 11 1020.2 0 15.8 20.8 29.4 76.7 68.0 233.2
03/09 08:50 25.3 32 7.49 7.4 7 11 1020.3 0 16.7 21.5 31.0 81.1 73.2 251.6
03/09 08:40 24.4 31 6.9 6.2 9 15 1020.2 0 15.5 20.9 29.4 76.8 67.6 231.6
03/09 08:30 24 33 7.18 6.7 7 11 1020 0 16.1 21.4 30.5 79.6 71.0 243.5
03/09 08:20 23.3 35 7.32 7 6 9 1020 0 16.5 21.7 31.2 81.6 73.1 251.0
03/09 08:10 22.5 36 7.19 6.7 7 9 1019.9 0 16.2 21.8 31.1 81.2 72.4 248.3
03/09 08:00 21.3 43 8.01 8.2 7 11 1019.8 0 18.0 23.2 34.4 90.0 82.9 285.2
03/09 07:50 19.5 46 7.72 7.6 4 7 1019.8 0 17.5 23.2 34.1 89.2 81.4 279.5
03/09 07:40 18 51 7.83 7.7 4 7 1019.7 0 17.8 23.8 35.1 92.0 84.2 289.4
03/09 07:30 16.9 55 7.91 7.8 7 11 1019.5 0 18.0 24.2 35.9 94.0 86.4 296.8
03/09 07:20 15.6 60 7.98 7.9 9 11 1019.5 0 18.2 24.6 36.8 96.3 88.7 304.8
03/09 07:10 13.2 69 7.92 7.6 7 11 1019.3 0 18.2 25.2 37.6 98.6 90.7 311.3
03/09 07:00 12.1 71 7.61 7 9 9 1019.1 0 17.5 25.0 36.9 96.7 87.9 301.4
03/09 06:50 11.5 73 7.54 6.8 2 9 1019.1 0 17.4 25.1 36.9 96.7 87.6 300.4
03/09 06:40 10.9 74 7.36 6.5 0 0 1018.9 0 17.1 24.9 36.5 95.4 85.9 294.3
03/09 06:30 11.1 73 7.35 6.5 2 6 1018.6 0 17.0 24.8 36.3 95.1 85.5 293.1
03/09 06:20 11.4 71 7.29 6.3 6 6 1018.5 0 16.9 24.7 35.9 94.1 84.4 289.2
03/09 06:10 11.4 70 7.19 6.1 0 0 1018.3 0 16.7 24.5 35.5 93.0 83.1 284.6
03/09 06:00 11.8 67 7.05 5.9 0 0 1018.2 0 16.4 24.2 34.8 91.0 80.9 276.8
03/09 05:50 12.7 64 7.13 6.1 0 0 1018 0 16.5 24.0 34.7 90.8 81.0 277.2
03/09 05:40 12.6 64 7.08 6 0 0 1017.8 0 16.4 24.0 34.6 90.4 80.4 275.3
03/09 05:30 12.8 62 6.95 5.7 2 7 1017.6 0 16.1 23.7 34.0 88.8 78.5 268.8
03/09 05:20 14.1 57 6.92 5.7 6 9 1017.5 0 16.0 23.3 33.3 87.1 76.9 263.1

Last Refresh: 03-Sep-2026 22:06:05

Bureau of Meteorology